createdAt,value
2022-10-21T00:17:06.742Z,7.10
2022-10-21T00:35:48.006Z,7.70
2022-10-21T00:54:26.320Z,9.10
2022-10-21T01:31:48.580Z,7.60
2022-10-21T01:50:23.136Z,7.90
2022-10-21T02:09:02.334Z,7.10
2022-10-21T02:27:43.275Z,5.10
2022-10-21T03:05:02.939Z,12.70
2022-10-21T03:42:23.647Z,7.90
2022-10-21T04:01:04.079Z,8.50
2022-10-21T04:19:44.466Z,7.80
2022-10-21T04:38:22.766Z,9.60
2022-10-21T04:57:02.710Z,10.00
2022-10-21T05:15:46.545Z,10.00
2022-10-21T05:34:24.304Z,12.10
2022-10-21T05:53:02.920Z,7.10
2022-10-21T06:11:45.685Z,12.50
2022-10-21T06:30:24.898Z,10.80
2022-10-21T06:49:07.682Z,9.40
2022-10-21T07:07:49.990Z,14.90
2022-10-21T07:26:32.990Z,11.70
2022-10-21T07:45:14.214Z,10.90
2022-10-21T08:03:56.033Z,11.70
2022-10-21T08:41:19.238Z,10.40
2022-10-21T09:00:01.731Z,11.90
2022-10-21T09:18:43.827Z,12.60
2022-10-21T09:37:23.861Z,9.60
2022-10-21T09:56:09.243Z,9.30
2022-10-21T10:14:45.661Z,10.20
2022-10-21T10:33:30.414Z,14.60
2022-10-21T11:10:46.754Z,8.90
2022-10-21T11:29:29.168Z,7.30
2022-10-21T12:06:51.841Z,7.80
2022-10-21T12:25:36.977Z,8.90
2022-10-21T12:44:12.626Z,6.60
2022-10-21T13:02:42.395Z,7.70
2022-10-21T13:21:23.787Z,7.60
2022-10-21T13:58:54.759Z,5.80
2022-10-21T14:17:35.329Z,5.80
2022-10-21T14:36:11.359Z,7.00
2022-10-21T14:54:47.599Z,6.60
2022-10-21T15:13:22.237Z,2.40
2022-10-21T15:32:03.218Z,3.10
2022-10-21T15:50:43.748Z,2.80
2022-10-21T16:09:27.660Z,4.20
2022-10-21T16:28:01.742Z,3.20
2022-10-21T16:46:42.044Z,3.10
2022-10-21T17:23:58.067Z,4.60
2022-10-21T17:42:36.589Z,6.20
2022-10-21T18:01:15.930Z,5.60
2022-10-21T18:19:55.415Z,4.00
2022-10-21T19:15:56.540Z,4.10
2022-10-21T19:34:36.457Z,4.10
2022-10-21T19:53:14.828Z,3.40
2022-10-21T20:30:32.066Z,5.90
2022-10-21T20:49:11.501Z,6.10
2022-10-21T21:07:49.657Z,4.90
2022-10-21T21:26:29.176Z,6.00
2022-10-21T21:45:08.451Z,6.70
2022-10-21T22:03:54.754Z,5.30
2022-10-21T22:22:28.654Z,5.10
2022-10-21T22:41:12.402Z,4.30
2022-10-21T22:59:53.002Z,8.00
2022-10-21T23:18:29.961Z,2.30
2022-10-21T23:55:52.132Z,2.30
